createdAt,value
2023-05-13T00:00:45.222Z,100970.53
2023-05-13T00:03:48.337Z,100975.22
2023-05-13T00:06:51.588Z,100973.41
2023-05-13T00:09:54.423Z,100974.22
2023-05-13T00:12:57.107Z,100970.41
2023-05-13T00:16:00.068Z,100980.16
2023-05-13T00:19:02.979Z,100973.81
2023-05-13T00:22:05.737Z,100973.78
2023-05-13T00:25:08.907Z,100969.69
2023-05-13T00:28:14.226Z,100972.53
2023-05-13T00:31:17.146Z,100967.41
2023-05-13T00:34:20.088Z,100958.41
2023-05-13T00:37:23.005Z,100960.25
2023-05-13T00:40:25.940Z,100963.91
2023-05-13T00:43:29.526Z,100966.31
2023-05-13T00:46:35.956Z,100975.91
2023-05-13T00:49:39.033Z,100967.13
2023-05-13T00:52:42.965Z,100974.09
2023-05-13T00:55:46.542Z,100983.31
2023-05-13T00:58:50.102Z,100980.03
2023-05-13T01:02:35.031Z,100980.66
2023-05-13T01:05:40.983Z,100980.66
2023-05-13T01:08:56.798Z,100977.66
2023-05-13T01:12:08.814Z,100984.81
2023-05-13T01:15:16.398Z,100990.69
2023-05-13T01:18:27.483Z,100999.41
2023-05-13T01:21:36.412Z,100989.22
2023-05-13T01:24:39.343Z,100990.78
2023-05-13T01:27:42.254Z,100997.72
2023-05-13T01:30:48.017Z,100997.16
2023-05-13T01:33:51.522Z,101000.25
2023-05-13T01:36:54.997Z,100997.22
2023-05-13T01:39:58.735Z,100994.16
2023-05-13T01:43:02.029Z,100996.63
2023-05-13T01:46:12.289Z,101000.66
2023-05-13T01:49:15.218Z,101001.50
2023-05-13T01:52:18.041Z,101000.03
2023-05-13T01:55:21.236Z,100995.56
2023-05-13T01:58:25.092Z,100997.38
2023-05-13T02:01:27.972Z,100996.69
2023-05-13T02:04:30.836Z,100999.03
2023-05-13T02:07:34.568Z,101009.50
2023-05-13T02:10:37.377Z,101001.47
2023-05-13T02:13:40.246Z,101005.91
2023-05-13T02:16:43.500Z,101006.97
2023-05-13T02:19:46.322Z,101010.03
2023-05-13T02:22:49.096Z,101007.47
2023-05-13T02:25:51.969Z,101013.13
2023-05-13T02:28:54.818Z,101012.56
2023-05-13T02:31:57.740Z,101010.53
2023-05-13T02:35:00.782Z,101018.09
2023-05-13T02:38:04.532Z,101021.63
2023-05-13T02:41:09.429Z,101018.16
2023-05-13T02:44:12.222Z,101018.41
2023-05-13T02:47:15.041Z,101019.56
2023-05-13T02:50:18.108Z,101016.59
2023-05-13T02:53:20.992Z,101020.31
2023-05-13T02:56:29.208Z,101022.72
2023-05-13T02:59:32.032Z,101019.88
2023-05-13T03:02:35.513Z,101017.69
2023-05-13T03:05:38.400Z,101021.09
2023-05-13T03:08:41.146Z,101019.69
2023-05-13T03:11:43.926Z,101022.97
2023-05-13T03:14:46.808Z,101033.47
2023-05-13T03:17:49.543Z,101043.09
2023-05-13T03:20:54.176Z,101040.59
2023-05-13T03:23:58.442Z,101041.84
2023-05-13T03:27:01.469Z,101038.53
2023-05-13T03:30:06.172Z,101037.84
2023-05-13T03:33:14.383Z,101037.59
2023-05-13T03:36:17.229Z,101043.53
2023-05-13T03:39:20.161Z,101037.03
2023-05-13T03:42:23.791Z,101046.06
2023-05-13T03:45:27.533Z,101047.66
2023-05-13T03:48:33.781Z,101050.25
2023-05-13T03:51:38.178Z,101049.72
2023-05-13T03:54:41.967Z,101055.84
2023-05-13T03:57:49.020Z,101057.63
2023-05-13T04:00:54.152Z,101061.72
2023-05-13T04:03:56.933Z,101076.03
2023-05-13T04:06:59.773Z,101074.38
2023-05-13T04:10:02.672Z,101070.09
2023-05-13T04:13:06.407Z,101073.69
2023-05-13T04:16:09.112Z,101082.50
2023-05-13T04:19:11.917Z,101083.47
2023-05-13T04:22:14.672Z,101081.63
2023-05-13T04:25:17.700Z,101085.16
2023-05-13T04:28:20.980Z,101100.66
2023-05-13T04:31:25.472Z,101096.84
2023-05-13T04:34:28.322Z,101107.31
2023-05-13T04:37:31.371Z,101102.72
2023-05-13T04:40:38.366Z,101102.50
2023-05-13T04:43:45.181Z,101107.06
2023-05-13T04:46:48.510Z,101105.22
2023-05-13T04:49:51.360Z,101111.38
2023-05-13T04:52:56.530Z,101107.63
2023-05-13T04:56:01.146Z,101111.56
2023-05-13T04:59:05.611Z,101113.84
2023-05-13T05:02:08.424Z,101112.22
2023-05-13T05:05:11.425Z,101112.44
2023-05-13T05:08:14.300Z,101104.53
2023-05-13T05:11:17.079Z,101105.56
2023-05-13T05:14:20.400Z,101098.53
2023-05-13T05:17:25.464Z,101089.78
2023-05-13T05:20:28.476Z,101091.66
2023-05-13T05:23:34.308Z,101093.50
2023-05-13T05:26:37.238Z,101095.50
2023-05-13T05:29:42.130Z,101093.91
2023-05-13T05:32:45.149Z,101090.22
2023-05-13T05:35:49.077Z,101090.16
2023-05-13T05:38:53.834Z,101087.88
2023-05-13T05:41:58.800Z,101088.72
2023-05-13T05:45:01.700Z,101091.72
2023-05-13T05:48:05.916Z,101078.94
2023-05-13T05:51:08.989Z,101073.25
2023-05-13T05:54:12.529Z,101080.19
2023-05-13T05:57:15.691Z,101080.81
2023-05-13T06:00:19.180Z,101079.38
2023-05-13T06:03:22.120Z,101092.66
2023-05-13T06:06:25.471Z,101095.53
2023-05-13T06:09:28.230Z,101094.53
2023-05-13T06:12:31.282Z,101085.13
2023-05-13T06:15:34.125Z,101105.28
2023-05-13T06:18:36.983Z,101111.63
2023-05-13T06:21:39.785Z,101108.94
2023-05-13T06:24:44.850Z,101109.69
2023-05-13T06:27:49.346Z,101108.13
2023-05-13T06:30:56.822Z,101106.28
2023-05-13T06:33:59.751Z,101117.91
2023-05-13T06:37:02.477Z,101118.41
2023-05-13T06:40:06.218Z,101124.50
2023-05-13T06:43:16.566Z,101129.75
2023-05-13T06:46:23.738Z,101116.94
2023-05-13T06:49:26.583Z,101119.44
2023-05-13T06:52:31.529Z,101125.09
2023-05-13T06:55:41.673Z,101122.09
2023-05-13T06:58:44.712Z,101124.28
2023-05-13T07:01:47.479Z,101122.31
2023-05-13T07:04:50.196Z,101128.31
2023-05-13T07:07:53.910Z,101127.41
2023-05-13T07:10:56.691Z,101135.91
2023-05-13T07:13:59.411Z,101134.75
2023-05-13T07:17:02.390Z,101136.16
2023-05-13T07:20:06.569Z,101139.88
2023-05-13T07:23:09.345Z,101140.50
2023-05-13T07:26:12.398Z,101145.91
2023-05-13T07:29:15.161Z,101142.06
2023-05-13T07:32:18.157Z,101154.81
2023-05-13T07:35:21.247Z,101163.06
2023-05-13T07:38:24.198Z,101167.56
2023-05-13T07:41:27.830Z,101173.88
2023-05-13T07:44:30.879Z,101171.16
2023-05-13T07:47:34.065Z,101180.72
2023-05-13T07:50:36.841Z,101176.50
2023-05-13T07:53:39.886Z,101176.91
2023-05-13T07:56:44.471Z,101181.78
2023-05-13T07:59:47.157Z,101179.25
2023-05-13T08:02:50.017Z,101182.78
2023-05-13T08:05:52.837Z,101185.63
2023-05-13T08:08:55.644Z,101193.88
2023-05-13T08:11:58.413Z,101195.25
2023-05-13T08:15:04.011Z,101188.75
2023-05-13T08:18:06.837Z,101181.25
2023-05-13T08:21:09.597Z,101180.59
2023-05-13T08:24:12.586Z,101179.47
2023-05-13T08:27:15.290Z,101181.25
2023-05-13T08:30:18.350Z,101187.03
2023-05-13T08:33:21.330Z,101173.06
2023-05-13T08:36:26.051Z,101181.75
2023-05-13T08:39:29.156Z,101174.53
2023-05-13T08:42:33.720Z,101171.25
2023-05-13T08:45:37.806Z,101184.09
2023-05-13T08:48:42.325Z,101163.75
2023-05-13T08:51:45.481Z,101167.50
2023-05-13T08:54:48.987Z,101172.16
2023-05-13T08:57:52.217Z,101182.31
2023-05-13T09:00:55.410Z,101174.84
2023-05-13T09:04:01.576Z,101175.28
2023-05-13T09:07:08.012Z,101176.16
2023-05-13T09:10:11.366Z,101177.53
2023-05-13T09:13:14.595Z,101166.16
2023-05-13T09:16:17.378Z,101171.56
2023-05-13T09:19:20.317Z,101166.81
2023-05-13T09:22:23.084Z,101161.00
2023-05-13T09:25:27.226Z,101158.09
2023-05-13T09:28:30.048Z,101155.66
2023-05-13T09:31:33.887Z,101156.34
2023-05-13T09:34:36.724Z,101170.97
2023-05-13T09:37:39.604Z,101166.09
2023-05-13T09:40:50.056Z,101170.25
2023-05-13T09:43:52.922Z,101172.81
2023-05-13T09:46:55.782Z,101173.25
2023-05-13T09:50:02.855Z,101177.81
2023-05-13T09:53:14.864Z,101169.22
2023-05-13T09:56:22.352Z,101171.69
2023-05-13T09:59:25.159Z,101180.66
2023-05-13T10:02:29.188Z,101173.31
2023-05-13T10:05:34.983Z,101167.72
2023-05-13T10:08:39.176Z,101168.41
2023-05-13T10:11:46.486Z,101166.31
2023-05-13T10:14:52.214Z,101163.03
2023-05-13T10:17:55.278Z,101157.41
2023-05-13T10:20:58.718Z,101154.53
2023-05-13T10:24:02.088Z,101159.00
2023-05-13T10:27:06.738Z,101160.94
2023-05-13T10:30:10.772Z,101161.19
2023-05-13T10:33:14.201Z,101155.34
2023-05-13T10:36:27.238Z,101164.53
2023-05-13T10:39:38.660Z,101158.84
2023-05-13T10:42:47.997Z,101147.66
2023-05-13T10:45:56.735Z,101143.75
2023-05-13T10:49:00.510Z,101141.75
2023-05-13T10:52:14.128Z,101149.59
2023-05-13T10:55:20.529Z,101158.38
2023-05-13T10:58:30.261Z,101160.16
2023-05-13T11:01:44.245Z,101158.81
2023-05-13T11:05:00.457Z,101161.59
2023-05-13T11:08:03.517Z,101171.19
2023-05-13T11:11:21.499Z,101162.84
2023-05-13T11:14:26.265Z,101167.25
2023-05-13T11:17:31.319Z,101175.13
2023-05-13T11:20:51.228Z,101180.19
2023-05-13T11:24:06.585Z,101175.03
2023-05-13T11:27:21.635Z,101182.19
2023-05-13T11:30:27.145Z,101172.94
2023-05-13T11:34:11.539Z,101176.38
2023-05-13T11:37:14.373Z,101168.78
2023-05-13T11:40:34.194Z,101172.91
2023-05-13T11:43:39.534Z,101175.75
2023-05-13T11:46:59.399Z,101168.00
2023-05-13T11:50:02.149Z,101170.56
2023-05-13T11:53:05.219Z,101163.84
2023-05-13T11:56:11.360Z,101167.88
2023-05-13T11:59:15.317Z,101168.72
2023-05-13T12:02:22.019Z,101178.72
2023-05-13T12:05:25.540Z,101183.41
2023-05-13T12:08:28.637Z,101185.84
2023-05-13T12:11:31.781Z,101165.34
2023-05-13T12:14:34.869Z,101146.38
2023-05-13T12:17:38.052Z,101143.66
2023-05-13T12:21:17.963Z,101134.97
2023-05-13T12:24:21.810Z,101128.78
2023-05-13T12:27:24.635Z,101137.59
2023-05-13T12:30:34.341Z,101136.13
2023-05-13T12:33:47.042Z,101140.81
2023-05-13T12:36:49.957Z,101145.88
2023-05-13T12:40:10.284Z,101134.00
2023-05-13T12:43:13.875Z,101143.06
2023-05-13T12:46:16.694Z,101150.19
2023-05-13T12:49:19.496Z,101151.00
2023-05-13T12:52:22.570Z,101148.69
2023-05-13T12:55:27.376Z,101139.66
2023-05-13T12:58:30.144Z,101136.44
2023-05-13T13:01:33.295Z,101125.59
2023-05-13T13:04:36.095Z,101123.09
2023-05-13T13:07:38.929Z,101116.97
2023-05-13T13:10:41.794Z,101103.50
2023-05-13T13:13:45.254Z,101101.88
2023-05-13T13:16:48.130Z,101089.75
2023-05-13T13:19:51.003Z,101089.63
2023-05-13T13:22:54.886Z,101097.84
2023-05-13T13:25:59.421Z,101089.41
2023-05-13T13:29:02.245Z,101079.94
2023-05-13T13:32:05.370Z,101077.91
2023-05-13T13:35:08.472Z,101079.66
2023-05-13T13:38:11.544Z,101072.97
2023-05-13T13:41:14.362Z,101070.94
2023-05-13T13:44:17.137Z,101065.22
2023-05-13T13:47:19.970Z,101069.72
2023-05-13T13:54:18.979Z,101055.34
2023-05-13T13:57:24.415Z,101059.66
2023-05-13T14:00:27.164Z,101060.44
2023-05-13T14:03:30.190Z,101054.13
2023-05-13T14:06:32.986Z,101060.44
2023-05-13T14:09:35.709Z,101059.09
2023-05-13T14:12:38.599Z,101058.16
2023-05-13T14:15:41.334Z,101058.97
2023-05-13T14:18:44.539Z,101055.69
2023-05-13T14:21:47.358Z,101045.69
2023-05-13T14:24:52.204Z,101044.91
2023-05-13T14:27:54.995Z,101040.88
2023-05-13T14:30:57.790Z,101050.34
2023-05-13T14:34:00.582Z,101042.56
2023-05-13T14:37:03.485Z,101046.13
2023-05-13T14:40:07.316Z,101052.22
2023-05-13T14:43:10.228Z,101050.00
2023-05-13T14:46:13.413Z,101043.16
2023-05-13T14:49:16.306Z,101030.63
2023-05-13T14:52:19.069Z,101030.25
2023-05-13T14:55:21.824Z,101034.84
2023-05-13T14:58:24.952Z,101030.63
2023-05-13T15:01:27.850Z,101035.38
2023-05-13T15:04:30.968Z,101029.25
2023-05-13T15:07:33.812Z,101024.44
2023-05-13T15:10:36.534Z,101030.03
2023-05-13T15:13:39.632Z,101022.53
2023-05-13T15:16:42.394Z,101025.00
2023-05-13T15:19:45.244Z,101026.72
2023-05-13T15:22:48.005Z,101022.91
2023-05-13T15:25:51.620Z,101026.44
2023-05-13T15:28:54.424Z,101022.47
2023-05-13T15:31:57.166Z,101015.94
2023-05-13T15:34:59.874Z,101017.03
2023-05-13T15:38:03.666Z,101008.06
2023-05-13T15:41:06.480Z,101004.94
2023-05-13T15:44:09.277Z,101002.63
2023-05-13T15:47:12.273Z,101012.06
2023-05-13T15:50:15.150Z,101005.66
2023-05-13T15:53:17.932Z,101004.56
2023-05-13T15:56:25.852Z,101002.06
2023-05-13T15:59:28.586Z,101001.00
2023-05-13T16:02:37.657Z,101008.50
2023-05-13T16:05:40.462Z,101004.31
2023-05-13T16:08:43.201Z,101010.72
2023-05-13T16:11:46.007Z,101013.31
2023-05-13T16:14:48.777Z,101011.19
2023-05-13T16:17:51.555Z,101013.22
2023-05-13T16:21:18.128Z,101013.53
2023-05-13T16:24:37.030Z,101011.88
2023-05-13T16:27:40.686Z,101005.03
2023-05-13T16:31:13.290Z,101003.88
2023-05-13T16:34:16.175Z,100998.56
2023-05-13T16:37:19.080Z,100993.22
2023-05-13T16:40:22.240Z,100980.81
2023-05-13T16:43:25.064Z,100987.88
2023-05-13T16:46:29.010Z,100991.94
2023-05-13T16:49:31.794Z,100993.06
2023-05-13T16:52:34.518Z,100982.50
2023-05-13T16:55:37.277Z,100976.97
2023-05-13T16:58:40.101Z,100970.28
2023-05-13T17:01:42.891Z,100978.56
2023-05-13T17:04:45.853Z,100990.84
2023-05-13T17:07:48.592Z,100982.41
2023-05-13T17:11:01.192Z,100990.75
2023-05-13T17:14:06.264Z,100986.38
2023-05-13T17:17:09.384Z,100991.31
2023-05-13T17:20:12.468Z,100998.78
2023-05-13T17:23:17.364Z,101007.97
2023-05-13T17:26:22.094Z,101012.81
2023-05-13T17:29:26.009Z,101009.31
2023-05-13T17:32:31.548Z,101008.31
2023-05-13T17:35:54.504Z,101020.47
2023-05-13T17:38:57.277Z,101023.59
2023-05-13T17:42:00.041Z,101015.53
2023-05-13T17:45:03.836Z,101013.88
2023-05-13T17:48:06.959Z,101016.75
2023-05-13T17:51:11.538Z,101012.69
2023-05-13T17:54:14.342Z,101020.00
2023-05-13T17:57:17.312Z,101019.13
2023-05-13T18:00:20.406Z,101029.56
2023-05-13T18:03:23.626Z,101026.38
2023-05-13T18:06:26.595Z,101036.34
2023-05-13T18:09:29.538Z,101025.50
2023-05-13T18:12:32.372Z,101041.06
2023-05-13T18:15:35.256Z,101041.34
2023-05-13T18:18:38.065Z,101068.34
2023-05-13T18:21:40.949Z,101077.81
2023-05-13T18:24:46.547Z,101081.97
2023-05-13T18:27:50.618Z,101091.94
2023-05-13T18:30:53.259Z,101091.94
2023-05-13T18:33:55.985Z,101075.34
2023-05-13T18:36:58.901Z,101088.31
2023-05-13T18:40:02.260Z,101098.63
2023-05-13T18:43:05.073Z,101132.25
2023-05-13T18:46:07.905Z,101142.19
2023-05-13T18:49:11.536Z,101146.25
2023-05-13T18:52:14.265Z,101138.25
2023-05-13T18:55:17.068Z,101134.19
2023-05-13T18:58:19.803Z,101134.44
2023-05-13T19:01:22.781Z,101121.69
2023-05-13T19:04:26.126Z,101116.34
2023-05-13T19:07:29.121Z,101109.38
2023-05-13T19:10:39.153Z,101104.28
2023-05-13T19:13:47.376Z,101103.28
2023-05-13T19:16:51.023Z,101104.16
2023-05-13T19:19:53.796Z,101102.56
2023-05-13T19:22:56.681Z,101103.41
2023-05-13T19:25:59.593Z,101105.03
2023-05-13T19:29:02.881Z,101106.28
2023-05-13T19:32:06.398Z,101099.72
2023-05-13T19:35:09.733Z,101097.06
2023-05-13T19:38:12.614Z,101093.34
2023-05-13T19:41:15.417Z,101110.38
2023-05-13T19:44:18.288Z,101099.72
2023-05-13T19:47:21.085Z,101088.69
2023-05-13T19:50:24.153Z,101099.34
2023-05-13T19:53:27.341Z,101098.56
2023-05-13T19:56:30.701Z,101108.78
2023-05-13T19:59:33.430Z,101106.78
2023-05-13T20:02:36.298Z,101106.75
2023-05-13T20:05:41.311Z,101110.66
2023-05-13T20:08:44.006Z,101118.22
2023-05-13T20:11:46.821Z,101117.41
2023-05-13T20:14:58.903Z,101116.16
2023-05-13T20:18:01.638Z,101125.78
2023-05-13T20:21:04.643Z,101123.50
2023-05-13T20:24:07.516Z,101123.72
2023-05-13T20:27:10.428Z,101122.91
2023-05-13T20:30:13.813Z,101122.91
2023-05-13T20:33:16.569Z,101127.44
2023-05-13T20:36:19.292Z,101122.09
2023-05-13T20:39:22.238Z,101120.47
2023-05-13T20:42:25.569Z,101118.38
2023-05-13T20:45:28.735Z,101117.41
2023-05-13T20:48:33.126Z,101119.88
2023-05-13T20:51:35.840Z,101113.31
2023-05-13T20:54:38.992Z,101116.19
2023-05-13T20:57:42.070Z,101108.19
2023-05-13T21:00:44.902Z,101109.03
2023-05-13T21:03:50.080Z,101103.34
2023-05-13T21:06:53.385Z,101105.81
2023-05-13T21:09:56.138Z,101109.72
2023-05-13T21:12:59.114Z,101106.63
2023-05-13T21:16:05.561Z,101107.44
2023-05-13T21:19:08.595Z,101108.47
2023-05-13T21:22:11.355Z,101106.47
2023-05-13T21:25:14.090Z,101098.03
2023-05-13T21:28:18.717Z,101089.44
2023-05-13T21:31:21.862Z,101091.06
2023-05-13T21:34:24.652Z,101087.59
2023-05-13T21:37:27.562Z,101085.16
2023-05-13T21:40:30.301Z,101074.56
2023-05-13T21:43:33.043Z,101072.31
2023-05-13T21:46:36.342Z,101069.66
2023-05-13T21:49:39.322Z,101066.41
2023-05-13T21:52:42.206Z,101062.31
2023-05-13T21:55:44.972Z,101058.84
2023-05-13T21:58:50.042Z,101058.59
2023-05-13T22:01:52.808Z,101053.72
2023-05-13T22:04:55.552Z,101052.06
2023-05-13T22:08:00.195Z,101052.66
2023-05-13T22:11:03.162Z,101048.34
2023-05-13T22:14:05.983Z,101044.50
2023-05-13T22:17:10.313Z,101041.63
2023-05-13T22:20:13.864Z,101048.00
2023-05-13T22:23:16.552Z,101031.84
2023-05-13T22:26:19.367Z,101041.69
2023-05-13T22:29:22.214Z,101026.34
2023-05-13T22:32:25.293Z,101026.50
2023-05-13T22:35:32.248Z,101023.06
2023-05-13T22:38:34.975Z,101018.56
2023-05-13T22:41:37.791Z,101015.91
2023-05-13T22:44:40.499Z,101018.75
2023-05-13T22:47:48.288Z,101018.56
2023-05-13T22:51:00.047Z,101014.66
2023-05-13T22:54:02.928Z,101010.19
2023-05-13T22:57:06.053Z,101001.97
2023-05-13T23:00:09.387Z,101006.09
2023-05-13T23:03:12.312Z,101000.75
2023-05-13T23:06:15.153Z,100996.88
2023-05-13T23:09:18.014Z,100994.84
2023-05-13T23:12:20.784Z,100994.25
2023-05-13T23:15:23.564Z,100996.09
2023-05-13T23:18:26.371Z,100995.47
2023-05-13T23:21:29.344Z,100984.81
2023-05-13T23:24:32.262Z,100989.97
2023-05-13T23:27:35.600Z,100983.41
2023-05-13T23:30:38.375Z,100978.91
2023-05-13T23:33:41.200Z,100972.97
2023-05-13T23:36:43.992Z,100971.34
2023-05-13T23:39:46.705Z,100972.97
2023-05-13T23:42:49.455Z,100970.34
2023-05-13T23:45:52.158Z,100968.28
2023-05-13T23:48:55.173Z,100972.41
2023-05-13T23:51:57.880Z,100970.13
2023-05-13T23:55:03.689Z,100957.88
2023-05-13T23:58:06.360Z,100949.47
